Natural Bridge, Kentucky
Current Conditions -  °F | °C
As of 4:35 PM on Saturday 22 Nov 2014 (Local Time) from KIOB Reporting Station
Overcast Overcast  
Wind Chill: 57°   Ceiling: 10000
Heat Index: 57°   Visibility: 10mi
Dew Point: 32°   Wind: 9mph
Humidity: 38%   Direction: 240°WSW
Pressure: 30.19"   Gusts: NA
Location:  37.7973°N, 83.6839°W
Report Text: KIOB 222135Z AUTO 24008KT 10SM OVC100 14/00 A3019 RMK AO2
Loading
Personal Weather Stations






























Interactive Weather Map New forecast layout! Learn more

10-Day Weather Forecast

Advertisements
Track Severe Weather on mobile